Canton, Michigan
Current Conditions -  °F | °C
As of 12:53 AM on Saturday 25 Oct 2014 (Local Time) from KYIP Reporting Station
Haze Haze  
Wind Chill: 50°   Ceiling: Unl
Heat Index: 50°   Visibility: 5mi
Dew Point: 44°   Wind: 3mph
Humidity: 80%   Direction: 220°SW
Pressure: 29.96"   Gusts: NA
Location:  42.3°N, 83.49°W
Report Text: KYIP 250453Z 22003KT 5SM HZ CLR 10/07 A2996 RMK AO2 SLP141 T01000067 401780028
Loading
Personal Weather Stations






























Interactive Weather Map
Tropical Storm Tracking
New forecast layout! Learn more

10-Day Weather Forecast

Advertisements
Track Severe Weather on mobile